Skip to main content

S. Gens

ID 1210649 · 41.1845, -8.6445 map

Latest reading · 2026-05-09 19:00 (Europe/Lisbon)

Temperature
15.6 °C
Humidity
100 %
Pressure
Precipitation
0.0 mm
Radiation
700 W/m²
Wind speed
5.8 km/h
Wind direction
S · South

24-hour history

Time (Europe/Lisbon) Temp Humidity Pressure Rain Wind Dir
2026-05-09 19:00 15.6 °C 100 % 0.0 mm 5.8 km/h S
2026-05-09 18:00 15.7 °C 100 % 0.0 mm 6.5 km/h S
2026-05-09 17:00 15.1 °C 100 % 0.0 mm 10.1 km/h S
2026-05-09 16:00 14.8 °C 100 % 0.0 mm 3.6 km/h S
2026-05-09 15:00 12.8 °C 100 % 5.9 mm 2.9 km/h S
2026-05-09 14:00 15.8 °C 100 % 2.3 mm 4.3 km/h S
2026-05-09 13:00 16.6 °C 100 % 0.0 mm 4.3 km/h E
2026-05-09 12:00 13.5 °C 100 % 1.1 mm 6.1 km/h NE
2026-05-09 11:00 12.7 °C 100 % 4.4 mm 1.1 km/h W
2026-05-09 10:00 13.5 °C 100 % 1.7 mm 2.5 km/h S
2026-05-09 09:00 13.7 °C 99 % 0.2 mm 3.6 km/h SW
2026-05-09 08:00 13.8 °C 95 % 0.0 mm 2.9 km/h NE
2026-05-09 07:00 11.8 °C 100 % 0.0 mm 1.8 km/h NE
2026-05-09 06:00 11.3 °C 100 % 0.0 mm 2.9 km/h NE
2026-05-09 05:00 12.0 °C 100 % 0.0 mm 1.1 km/h NW
2026-05-09 04:00 12.3 °C 100 % 0.0 mm 2.5 km/h S
2026-05-09 03:00 12.6 °C 100 % 0.0 mm 1.8 km/h NE
2026-05-09 02:00 12.9 °C 100 % 0.1 mm 4.0 km/h NE
2026-05-09 01:00 13.9 °C 96 % 1.3 mm 2.9 km/h SE
2026-05-09 00:00 15.8 °C 63 % 0.0 mm 5.4 km/h S
2026-05-08 23:00 15.9 °C 59 % 0.0 mm 6.1 km/h NE
2026-05-08 22:00 15.8 °C 59 % 0.0 mm 6.1 km/h NE
2026-05-08 21:00 16.5 °C 57 % 0.0 mm 5.4 km/h NE
2026-05-08 20:00 17.1 °C 56 % 0.0 mm 3.2 km/h NE